createdAt,value
2022-12-12T00:01:34.494Z,23.77
2022-12-12T00:04:03.438Z,25.07
2022-12-12T00:06:30.331Z,26.03
2022-12-12T00:08:57.080Z,22.07
2022-12-12T00:11:28.425Z,25.97
2022-12-12T00:13:55.267Z,26.97
2022-12-12T00:16:22.685Z,27.90
2022-12-12T00:18:49.472Z,27.03
2022-12-12T00:21:21.210Z,26.53
2022-12-12T00:23:50.450Z,27.00
2022-12-12T00:26:24.210Z,26.43
2022-12-12T00:28:53.468Z,29.97
2022-12-12T00:31:21.299Z,26.67
2022-12-12T00:33:51.127Z,28.20
2022-12-12T00:36:21.623Z,30.17
2022-12-12T00:38:48.508Z,26.37
2022-12-12T00:41:19.944Z,28.00
2022-12-12T00:43:46.691Z,31.57
2022-12-12T00:46:17.869Z,31.73
2022-12-12T00:48:44.769Z,26.83
2022-12-12T00:51:13.811Z,28.70
2022-12-12T00:53:40.746Z,27.47
2022-12-12T00:56:07.613Z,28.57
2022-12-12T00:58:34.807Z,27.20
2022-12-12T01:01:06.561Z,27.97
2022-12-12T01:03:34.339Z,30.93
2022-12-12T01:06:01.089Z,28.17
2022-12-12T01:08:28.304Z,30.10
2022-12-12T01:10:57.710Z,28.87
2022-12-12T01:13:24.670Z,31.43
2022-12-12T01:15:51.933Z,30.13
2022-12-12T01:18:18.823Z,34.03
2022-12-12T01:20:46.022Z,31.07
2022-12-12T01:23:12.875Z,29.07
2022-12-12T01:25:39.841Z,28.73
2022-12-12T01:28:09.115Z,32.67
2022-12-12T01:30:35.889Z,31.43
2022-12-12T01:33:03.851Z,31.47
2022-12-12T01:35:33.365Z,29.60
2022-12-12T01:38:00.159Z,34.63
2022-12-12T01:40:28.737Z,36.07
2022-12-12T01:42:55.944Z,32.43
2022-12-12T01:46:03.127Z,34.30
2022-12-12T01:48:49.221Z,30.70
2022-12-12T01:51:19.146Z,32.27
2022-12-12T01:53:45.943Z,30.47
2022-12-12T01:56:14.416Z,32.70
2022-12-12T01:58:41.999Z,33.17
2022-12-12T02:01:09.541Z,28.83
2022-12-12T02:03:38.959Z,31.10
2022-12-12T02:06:07.156Z,32.00
2022-12-12T02:08:34.082Z,29.43
2022-12-12T02:11:00.857Z,29.97
2022-12-12T02:13:32.147Z,27.23
2022-12-12T02:16:13.896Z,26.23
2022-12-12T02:19:15.958Z,27.33
2022-12-12T02:21:47.878Z,28.63
2022-12-12T02:24:26.578Z,32.27
2022-12-12T02:27:24.274Z,25.20
2022-12-12T02:30:09.773Z,26.97
2022-12-12T02:33:01.197Z,23.73
2022-12-12T02:35:36.881Z,25.50
2022-12-12T02:38:15.879Z,24.67
2022-12-12T02:41:04.506Z,22.17
2022-12-12T02:44:02.049Z,21.53
2022-12-12T02:46:40.983Z,22.87
2022-12-12T02:49:24.069Z,20.27
2022-12-12T02:51:51.491Z,24.80
2022-12-12T02:54:23.369Z,22.17
2022-12-12T02:56:59.512Z,19.77
2022-12-12T02:59:40.623Z,21.23
2022-12-12T03:02:25.562Z,22.50
2022-12-12T03:05:35.981Z,22.67
2022-12-12T03:08:21.443Z,19.33
2022-12-12T03:11:02.315Z,19.07
2022-12-12T03:13:52.205Z,19.37
2022-12-12T03:16:32.757Z,19.00
2022-12-12T03:19:35.509Z,18.27
2022-12-12T03:22:11.199Z,19.67
2022-12-12T03:24:46.685Z,18.93
2022-12-12T03:27:19.408Z,18.43
2022-12-12T03:30:11.637Z,18.00
2022-12-12T03:32:59.423Z,18.43
2022-12-12T03:35:38.432Z,20.30
2022-12-12T03:38:08.726Z,17.30
2022-12-12T03:40:45.157Z,18.60
2022-12-12T03:43:15.851Z,18.57
2022-12-12T03:45:54.312Z,20.60
2022-12-12T03:48:28.301Z,22.97
2022-12-12T03:51:12.511Z,23.30
2022-12-12T03:53:40.979Z,21.63
2022-12-12T03:56:29.473Z,23.77
2022-12-12T03:59:15.001Z,24.90
2022-12-12T04:01:51.374Z,22.97
2022-12-12T04:04:27.404Z,24.37
2022-12-12T04:07:02.359Z,26.57
2022-12-12T04:09:47.664Z,24.23
2022-12-12T04:12:34.380Z,26.60
2022-12-12T04:15:18.758Z,27.30
2022-12-12T04:17:54.576Z,24.50
2022-12-12T04:20:44.519Z,29.90
2022-12-12T04:23:54.673Z,26.17
2022-12-12T04:26:41.985Z,23.67
2022-12-12T04:29:26.159Z,27.27
2022-12-12T04:32:07.576Z,22.17
2022-12-12T04:34:54.050Z,28.90
2022-12-12T04:37:36.016Z,27.83
2022-12-12T04:40:04.940Z,23.37
2022-12-12T04:42:42.974Z,20.83
2022-12-12T04:45:19.232Z,24.43
2022-12-12T04:47:53.887Z,33.03
2022-12-12T04:50:24.841Z,30.90
2022-12-12T04:52:51.969Z,28.27
2022-12-12T04:55:21.839Z,27.90
2022-12-12T04:57:55.970Z,26.53
2022-12-12T05:00:23.568Z,25.33
2022-12-12T05:03:17.973Z,26.70
2022-12-12T05:06:05.868Z,19.73
2022-12-12T05:08:37.570Z,24.50
2022-12-12T05:11:05.734Z,25.33
2022-12-12T05:13:42.777Z,24.37
2022-12-12T05:16:16.250Z,20.37
2022-12-12T05:18:45.410Z,24.97
2022-12-12T05:21:12.318Z,22.07
2022-12-12T05:23:39.086Z,23.63
2022-12-12T05:26:10.139Z,26.23
2022-12-12T05:28:39.398Z,25.87
2022-12-12T05:31:08.693Z,24.33
2022-12-12T05:33:35.878Z,26.00
2022-12-12T05:36:03.034Z,24.80
2022-12-12T05:38:29.819Z,31.20
2022-12-12T05:40:58.957Z,26.93
2022-12-12T05:43:27.009Z,29.63
2022-12-12T05:45:56.274Z,27.17
2022-12-12T05:48:24.707Z,27.17
2022-12-12T05:50:51.994Z,33.53
2022-12-12T05:53:19.192Z,28.70
2022-12-12T05:55:52.182Z,32.27
2022-12-12T05:58:22.020Z,32.40
2022-12-12T06:00:52.025Z,30.17
2022-12-12T06:03:19.162Z,35.87
2022-12-12T06:05:46.311Z,36.40
2022-12-12T06:08:20.980Z,36.60
2022-12-12T06:10:51.655Z,37.10
2022-12-12T06:13:18.377Z,34.50
2022-12-12T06:15:45.556Z,37.97
2022-12-12T06:18:14.446Z,35.50
2022-12-12T06:20:41.617Z,36.73
2022-12-12T06:23:08.787Z,42.37
2022-12-12T06:25:35.890Z,37.07
2022-12-12T06:28:02.670Z,37.90
2022-12-12T06:30:31.877Z,42.27
2022-12-12T06:33:00.874Z,41.10
2022-12-12T06:35:28.018Z,40.33
2022-12-12T06:37:54.733Z,38.53
2022-12-12T06:40:21.880Z,40.63
2022-12-12T06:42:49.134Z,45.57
2022-12-12T06:45:16.763Z,42.90
2022-12-12T06:47:45.800Z,42.87
2022-12-12T06:50:12.630Z,42.57
2022-12-12T06:52:41.928Z,40.53
2022-12-12T06:55:09.113Z,47.10
2022-12-12T06:57:38.306Z,40.80
2022-12-12T07:00:07.908Z,54.20
2022-12-12T07:02:35.079Z,39.83
2022-12-12T07:05:02.962Z,48.13
2022-12-12T07:07:30.116Z,41.00
2022-12-12T07:09:57.272Z,41.30
2022-12-12T07:12:24.394Z,43.97
2022-12-12T07:14:51.210Z,37.63
2022-12-12T07:17:20.393Z,42.83
2022-12-12T07:19:49.659Z,41.17
2022-12-12T07:22:16.834Z,45.30
2022-12-12T07:24:46.118Z,40.03
2022-12-12T07:27:18.390Z,38.73
2022-12-12T07:29:48.151Z,39.33
2022-12-12T07:32:14.872Z,41.53
2022-12-12T07:34:42.075Z,38.93
2022-12-12T07:37:09.064Z,43.20
2022-12-12T07:39:37.221Z,43.53
2022-12-12T07:42:04.398Z,40.70
2022-12-12T07:44:34.235Z,39.27
2022-12-12T07:47:01.423Z,39.40
2022-12-12T07:49:32.970Z,39.30
2022-12-12T07:51:59.698Z,43.33
2022-12-12T07:54:26.838Z,35.37
2022-12-12T07:56:53.980Z,42.37
2022-12-12T07:59:21.108Z,38.90
2022-12-12T08:01:48.287Z,40.80
2022-12-12T08:04:17.761Z,40.00
2022-12-12T08:06:44.553Z,38.33
2022-12-12T08:09:15.936Z,37.57
2022-12-12T08:11:46.662Z,36.17
2022-12-12T08:14:18.521Z,38.37
2022-12-12T08:16:45.295Z,30.20
2022-12-12T08:19:14.677Z,30.93
2022-12-12T08:21:42.528Z,32.07
2022-12-12T08:24:13.651Z,31.30
2022-12-12T08:26:40.894Z,29.57
2022-12-12T08:29:07.659Z,31.60
2022-12-12T08:31:35.220Z,28.07
2022-12-12T08:34:02.047Z,29.27
2022-12-12T08:36:30.654Z,26.73
2022-12-12T08:39:06.970Z,25.73
2022-12-12T08:41:38.259Z,29.70
2022-12-12T08:44:05.526Z,31.37
2022-12-12T08:46:34.711Z,30.83
2022-12-12T08:49:03.953Z,28.23
2022-12-12T08:51:31.106Z,27.23
2022-12-12T08:53:57.911Z,32.07
2022-12-12T08:56:24.672Z,33.03
2022-12-12T08:58:52.076Z,28.37
2022-12-12T09:01:22.719Z,32.43
2022-12-12T09:03:49.565Z,26.67
2022-12-12T09:06:19.149Z,23.00
2022-12-12T09:08:46.327Z,25.00
2022-12-12T09:11:13.232Z,27.67
2022-12-12T09:13:44.908Z,24.90
2022-12-12T09:16:11.788Z,22.63
2022-12-12T09:18:44.570Z,25.43
2022-12-12T09:21:15.133Z,23.07
2022-12-12T09:23:42.293Z,19.40
2022-12-12T09:26:09.310Z,24.73
2022-12-12T09:28:36.481Z,21.93
2022-12-12T09:31:12.577Z,21.30
2022-12-12T09:33:44.293Z,29.43
2022-12-12T09:36:13.942Z,28.07
2022-12-12T09:38:41.381Z,19.53
2022-12-12T09:41:13.340Z,19.57
2022-12-12T09:44:00.651Z,21.60
2022-12-12T09:46:31.566Z,21.67
2022-12-12T09:49:12.749Z,22.07
2022-12-12T09:51:39.980Z,16.90
2022-12-12T09:54:06.708Z,27.43
2022-12-12T09:57:24.905Z,19.00
2022-12-12T10:00:12.331Z,21.03
2022-12-12T10:03:11.511Z,17.87
2022-12-12T10:05:44.770Z,22.23
2022-12-12T10:08:18.486Z,18.47
2022-12-12T10:10:46.466Z,26.67
2022-12-12T10:13:30.190Z,19.90
2022-12-12T10:15:59.844Z,18.77
2022-12-12T10:18:39.095Z,19.20
2022-12-12T10:21:11.386Z,16.30
2022-12-12T10:23:44.443Z,18.10
2022-12-12T10:26:17.453Z,20.30
2022-12-12T10:28:47.222Z,21.15
2022-12-12T10:31:28.990Z,19.77
2022-12-12T10:33:58.795Z,20.70
2022-12-12T10:37:07.586Z,15.73
2022-12-12T10:39:53.138Z,16.33
2022-12-12T10:42:42.959Z,17.27
2022-12-12T10:45:27.142Z,16.47
2022-12-12T10:47:53.881Z,15.63
2022-12-12T10:50:43.647Z,17.47
2022-12-12T10:53:11.114Z,19.43
2022-12-12T10:55:55.676Z,20.93
2022-12-12T10:58:26.524Z,15.37
2022-12-12T11:01:05.634Z,12.97
2022-12-12T11:03:35.446Z,15.87
2022-12-12T11:06:07.656Z,15.83
2022-12-12T11:08:37.634Z,19.10
2022-12-12T11:11:07.527Z,14.23
2022-12-12T11:14:03.363Z,18.03
2022-12-12T11:16:30.566Z,15.77
2022-12-12T11:19:16.430Z,15.93
2022-12-12T11:21:43.582Z,15.47
2022-12-12T11:24:14.654Z,17.30
2022-12-12T11:27:05.722Z,15.13
2022-12-12T11:29:43.440Z,17.80
2022-12-12T11:32:14.680Z,15.00
2022-12-12T11:34:45.368Z,17.17
2022-12-12T11:37:16.707Z,15.23
2022-12-12T11:39:44.488Z,18.37
2022-12-12T11:42:13.974Z,17.00
2022-12-12T11:44:41.346Z,14.07
2022-12-12T11:47:16.707Z,18.90
2022-12-12T11:49:47.419Z,19.30
2022-12-12T11:52:30.510Z,19.40
2022-12-12T11:54:59.585Z,21.53
2022-12-12T11:57:56.605Z,22.73
2022-12-12T12:00:31.882Z,22.87
2022-12-12T12:03:22.883Z,20.87
2022-12-12T12:06:09.307Z,19.40
2022-12-12T12:08:48.491Z,21.67
2022-12-12T12:11:27.195Z,21.93
2022-12-12T12:14:31.359Z,25.30
2022-12-12T12:17:30.105Z,25.63
2022-12-12T12:20:12.959Z,22.07
2022-12-12T12:22:55.248Z,25.23
2022-12-12T12:25:56.444Z,26.77
2022-12-12T12:28:32.404Z,20.40
2022-12-12T12:31:17.121Z,20.50
2022-12-12T12:33:46.038Z,24.83
2022-12-12T12:36:28.758Z,24.27
2022-12-12T12:39:19.097Z,25.47
2022-12-12T12:42:10.922Z,21.37
2022-12-12T12:45:00.515Z,22.37
2022-12-12T12:47:37.334Z,18.83
2022-12-12T12:50:16.795Z,22.77
2022-12-12T12:52:45.211Z,21.80
2022-12-12T12:55:19.765Z,27.50
2022-12-12T12:57:48.073Z,23.97
2022-12-12T13:00:17.355Z,22.67
2022-12-12T13:03:02.473Z,20.33
2022-12-12T13:05:36.724Z,25.20
2022-12-12T13:08:12.877Z,22.37
2022-12-12T13:10:41.958Z,22.60
2022-12-12T13:13:27.194Z,23.03
2022-12-12T13:16:35.279Z,21.10
2022-12-12T13:19:09.755Z,25.50
2022-12-12T13:21:49.465Z,21.87
2022-12-12T13:24:24.145Z,19.60
2022-12-12T13:26:51.345Z,24.67
2022-12-12T13:29:48.846Z,21.93
2022-12-12T13:32:53.219Z,21.10
2022-12-12T13:35:25.916Z,21.37
2022-12-12T13:37:55.208Z,30.03
2022-12-12T13:40:31.775Z,23.27
2022-12-12T13:43:10.104Z,29.53
2022-12-12T13:45:43.047Z,25.13
2022-12-12T13:48:10.764Z,23.93
2022-12-12T13:50:37.922Z,27.10
2022-12-12T13:53:07.689Z,28.37
2022-12-12T13:55:35.216Z,30.20
2022-12-12T13:58:08.328Z,29.93
2022-12-12T14:00:38.737Z,29.17
2022-12-12T14:03:28.905Z,26.00
2022-12-12T14:05:55.729Z,34.77
2022-12-12T14:08:27.304Z,32.93
2022-12-12T14:11:06.630Z,30.83
2022-12-12T14:13:45.308Z,30.30
2022-12-12T14:16:22.646Z,27.23
2022-12-12T14:18:54.645Z,36.87
2022-12-12T14:21:22.465Z,36.30
2022-12-12T14:23:50.771Z,35.77
2022-12-12T14:26:30.393Z,34.03
2022-12-12T14:29:18.861Z,33.10
2022-12-12T14:32:13.786Z,40.33
2022-12-12T14:34:54.978Z,37.73
2022-12-12T14:37:59.230Z,35.93
2022-12-12T14:40:28.270Z,35.17
2022-12-12T14:43:19.208Z,41.10
2022-12-12T14:45:51.324Z,32.00
2022-12-12T14:48:30.952Z,30.70
2022-12-12T14:51:12.148Z,29.47
2022-12-12T14:53:38.851Z,28.87
2022-12-12T14:56:17.670Z,32.40
2022-12-12T14:58:56.370Z,32.33
2022-12-12T15:02:02.325Z,25.53
2022-12-12T15:04:34.326Z,26.10
2022-12-12T15:07:04.908Z,26.47
2022-12-12T15:09:34.834Z,23.07
2022-12-12T15:12:10.692Z,23.17
2022-12-12T15:14:47.270Z,21.33
2022-12-12T15:17:15.367Z,24.63
2022-12-12T15:19:42.098Z,26.33
2022-12-12T15:22:34.037Z,28.10
2022-12-12T15:25:12.280Z,23.17
2022-12-12T15:27:50.760Z,26.87
2022-12-12T15:30:37.087Z,21.80
2022-12-12T15:33:08.453Z,21.90
2022-12-12T15:35:37.484Z,23.37
2022-12-12T15:38:11.658Z,24.93
2022-12-12T15:40:39.638Z,23.63
2022-12-12T15:43:14.850Z,22.63
2022-12-12T15:45:58.700Z,21.63
2022-12-12T15:48:28.112Z,22.17
2022-12-12T15:51:05.739Z,26.77
2022-12-12T15:53:39.952Z,23.27
2022-12-12T15:56:32.559Z,27.57
2022-12-12T15:59:15.295Z,21.77
2022-12-12T16:01:44.398Z,23.07
2022-12-12T16:04:11.458Z,26.33
2022-12-12T16:06:47.265Z,25.73
2022-12-12T16:09:20.819Z,21.90
2022-12-12T16:11:48.105Z,23.70
2022-12-12T16:14:27.711Z,19.43
2022-12-12T16:17:05.544Z,18.07
2022-12-12T16:19:47.393Z,23.93
2022-12-12T16:22:20.812Z,23.27
2022-12-12T16:24:52.796Z,19.73
2022-12-12T16:27:21.729Z,23.87
2022-12-12T16:29:48.646Z,21.07
2022-12-12T16:32:17.201Z,26.83
2022-12-12T16:34:44.229Z,20.37
2022-12-12T16:37:15.261Z,22.20
2022-12-12T16:39:44.656Z,21.83
2022-12-12T16:42:13.263Z,20.23
2022-12-12T16:44:40.437Z,24.67
2022-12-12T16:47:17.396Z,20.60
2022-12-12T16:49:44.622Z,22.40
2022-12-12T16:52:18.627Z,21.90
2022-12-12T16:54:51.220Z,21.50
2022-12-12T16:57:22.901Z,22.47
2022-12-12T16:59:50.074Z,25.97
2022-12-12T17:02:23.397Z,23.33
2022-12-12T17:04:50.370Z,21.20
2022-12-12T17:07:20.161Z,24.47
2022-12-12T17:09:46.878Z,23.23
2022-12-12T17:12:15.329Z,24.97
2022-12-12T17:14:42.049Z,22.80
2022-12-12T17:17:08.775Z,27.27
2022-12-12T17:19:37.818Z,28.67
2022-12-12T17:22:05.009Z,24.43
2022-12-12T17:24:32.553Z,23.73
2022-12-12T17:26:59.735Z,21.87
2022-12-12T17:29:26.458Z,26.20
2022-12-12T17:31:53.638Z,24.60
2022-12-12T17:34:25.073Z,33.73
2022-12-12T17:36:54.303Z,26.23
2022-12-12T17:39:23.267Z,23.03
2022-12-12T17:41:50.001Z,26.23
2022-12-12T17:44:17.013Z,22.17
2022-12-12T17:46:43.788Z,22.77
2022-12-12T17:49:10.945Z,31.73
2022-12-12T17:51:37.792Z,21.80
2022-12-12T17:54:04.693Z,22.97
2022-12-12T17:56:32.227Z,25.47
2022-12-12T17:58:59.376Z,24.57
2022-12-12T18:01:27.118Z,21.53
2022-12-12T18:03:54.245Z,24.93
2022-12-12T18:06:22.127Z,20.57
2022-12-12T18:08:49.232Z,21.10
2022-12-12T18:11:20.202Z,22.00
2022-12-12T18:13:49.616Z,24.87
2022-12-12T18:16:16.601Z,26.23
2022-12-12T18:18:43.544Z,25.37
2022-12-12T18:21:23.698Z,23.53
2022-12-12T18:24:00.089Z,25.87
2022-12-12T18:26:26.878Z,20.40
2022-12-12T18:28:57.650Z,27.17
2022-12-12T18:31:24.971Z,23.93
2022-12-12T18:33:53.072Z,23.77
2022-12-12T18:36:29.450Z,22.10
2022-12-12T18:38:56.803Z,20.13
2022-12-12T18:41:23.726Z,26.77
2022-12-12T18:43:50.432Z,23.33
2022-12-12T18:46:18.992Z,20.70
2022-12-12T18:48:48.637Z,17.60
2022-12-12T18:51:17.475Z,21.23
2022-12-12T18:53:44.393Z,21.30
2022-12-12T18:56:17.811Z,26.40
2022-12-12T18:58:47.236Z,26.00
2022-12-12T19:01:16.998Z,18.20
2022-12-12T19:03:44.447Z,19.27
2022-12-12T19:06:15.054Z,24.03
2022-12-12T19:08:42.268Z,20.67
2022-12-12T19:11:09.231Z,22.10
2022-12-12T19:13:36.070Z,19.53
2022-12-12T19:16:13.063Z,22.40
2022-12-12T19:18:40.474Z,21.53
2022-12-12T19:21:08.701Z,23.37
2022-12-12T19:23:36.014Z,22.57
2022-12-12T19:26:10.268Z,23.23
2022-12-12T19:28:37.047Z,20.93
2022-12-12T19:31:13.540Z,20.40
2022-12-12T19:33:40.900Z,21.63
2022-12-12T19:36:12.339Z,24.47
2022-12-12T19:38:39.560Z,22.93
2022-12-12T19:41:10.950Z,22.00
2022-12-12T19:43:38.103Z,26.57
2022-12-12T19:46:15.644Z,30.20
2022-12-12T19:48:45.544Z,24.30
2022-12-12T19:51:17.158Z,26.93
2022-12-12T19:53:54.363Z,30.57
2022-12-12T19:56:29.045Z,27.00
2022-12-12T19:58:56.684Z,29.83
2022-12-12T20:01:28.490Z,24.53
2022-12-12T20:03:57.228Z,27.17
2022-12-12T20:06:28.939Z,24.67
2022-12-12T20:08:58.038Z,30.67
2022-12-12T20:11:26.967Z,27.57
2022-12-12T20:13:55.698Z,28.00
2022-12-12T20:16:24.447Z,25.83
2022-12-12T20:18:51.597Z,27.90
2022-12-12T20:21:43.415Z,28.80
2022-12-12T20:24:07.539Z,24.63
2022-12-12T20:26:34.819Z,26.87
2022-12-12T20:29:01.958Z,27.47
2022-12-12T20:31:30.441Z,29.50
2022-12-12T20:33:57.949Z,25.67
2022-12-12T20:36:29.634Z,23.03
2022-12-12T20:38:56.915Z,24.30
2022-12-12T20:41:25.786Z,28.23
2022-12-12T20:43:58.603Z,25.93
2022-12-12T20:46:33.009Z,26.50
2022-12-12T20:49:03.361Z,26.67
2022-12-12T20:54:22.211Z,24.17
2022-12-12T20:56:49.491Z,26.37
2022-12-12T20:59:16.676Z,26.67
2022-12-12T21:01:43.493Z,27.83
2022-12-12T21:04:10.591Z,25.83
2022-12-12T21:06:43.261Z,28.27
2022-12-12T21:09:19.129Z,25.53
2022-12-12T21:11:48.432Z,25.30
2022-12-12T21:14:15.590Z,24.63
2022-12-12T21:16:42.347Z,26.50
2022-12-12T21:19:12.921Z,28.27
2022-12-12T21:21:40.203Z,21.60
2022-12-12T21:24:09.178Z,22.57
2022-12-12T21:26:36.372Z,25.63
2022-12-12T21:29:05.903Z,29.80
2022-12-12T21:31:34.843Z,24.73
2022-12-12T21:34:02.071Z,26.00
2022-12-12T21:36:29.458Z,24.37
2022-12-12T21:38:56.870Z,24.87
2022-12-12T21:41:23.817Z,25.87
2022-12-12T21:43:52.867Z,22.33
2022-12-12T21:46:21.489Z,27.60
2022-12-12T21:49:08.736Z,30.57
2022-12-12T21:51:35.918Z,25.60
2022-12-12T21:54:03.853Z,26.37
2022-12-12T21:56:30.673Z,26.03
2022-12-12T21:58:57.541Z,23.13
2022-12-12T22:01:24.410Z,27.87
2022-12-12T22:03:51.697Z,29.77
2022-12-12T22:06:23.418Z,23.70
2022-12-12T22:08:50.269Z,25.17
2022-12-12T22:11:23.830Z,26.53
2022-12-12T22:14:06.850Z,28.23
2022-12-12T22:16:34.142Z,26.33
2022-12-12T22:19:05.575Z,23.70
2022-12-12T22:21:33.052Z,27.13
2022-12-12T22:24:02.401Z,27.53
2022-12-12T22:26:34.215Z,28.70
2022-12-12T22:29:02.964Z,27.07
2022-12-12T22:31:31.543Z,23.87
2022-12-12T22:34:02.119Z,27.60
2022-12-12T22:36:30.494Z,22.03
2022-12-12T22:38:58.144Z,24.97
2022-12-12T22:41:28.906Z,27.80
2022-12-12T22:43:58.334Z,25.27
2022-12-12T22:46:26.348Z,22.60
2022-12-12T22:48:54.033Z,24.37
2022-12-12T22:51:25.371Z,25.80
2022-12-12T22:53:55.587Z,28.07
2022-12-12T22:56:22.346Z,26.80
2022-12-12T22:58:53.838Z,25.67
2022-12-12T23:01:21.506Z,23.70
2022-12-12T23:03:51.282Z,25.70
2022-12-12T23:06:21.210Z,25.97
2022-12-12T23:08:52.369Z,27.80
2022-12-12T23:11:22.228Z,28.07
2022-12-12T23:13:53.618Z,23.80
2022-12-12T23:16:21.252Z,26.93
2022-12-12T23:18:48.317Z,27.53
2022-12-12T23:21:17.548Z,28.60
2022-12-12T23:23:45.030Z,26.50
2022-12-12T23:26:13.395Z,30.77
2022-12-12T23:28:40.320Z,26.93
2022-12-12T23:31:08.766Z,29.33
2022-12-12T23:33:35.983Z,23.37
2022-12-12T23:36:05.576Z,27.77
2022-12-12T23:38:34.902Z,28.10
2022-12-12T23:41:05.589Z,23.90
2022-12-12T23:43:35.068Z,25.57
2022-12-12T23:46:02.723Z,28.03
2022-12-12T23:48:29.707Z,24.97
2022-12-12T23:50:59.200Z,23.93
2022-12-12T23:53:26.414Z,23.40
2022-12-12T23:55:53.687Z,22.30
2022-12-12T23:58:20.420Z,21.80
